ESOW

Stockholm Västerås Airport

Stockholm / Västerås, Sweden
TAF ESOW 231130Z 2312/2320 19010KT 9999 FEW040
Issued Valid From Valid To
Jul-23 @ 11:30 UTC
(2 hours ago)
Jul-23 @ 12:00 UTC
(2 hours ago)
Jul-23 @ 20:00 UTC
(in 6 hours)
Jul-23 @ 12:00 to Jul-23 @ 20:00
TAF ESOW 231130Z 2312/2320 19010KT 9999 FEW040
Wind Visibility Clouds
190° at 10 knots 10,000+ meters
  • Few at 4,000' AGL
TAF ESOW 231130Z 2312/2320 19010KT 9999 FEW040
Issued Jul-23 @ 11:30 UTC
(2 hours ago)
Valid From Jul-23 @ 12:00 UTC
(2 hours ago)
Valid To Jul-23 @ 20:00 UTC
(in 6 hours)
Jul-23 @ 12:00 - Jul-23 @ 20:00
Wind Visibility
190° at 10 knots 10,000+ meters
Clouds
  • Few at 4,000' AGL